| Date | Time | Temp. (oF) | Dew Point (oF) | Rel. Hum. (%) | Press. (in.) | Wind Dir. | Wind Speed (mph) | Hourly Rainfall (in.) |
|
|---|---|---|---|---|---|---|---|---|---|
| 1 | 03/08 | 00:00 | 60 | 50 | 70 | 29.80 | SW | 7 | 0.00 |
| 2 | 03/07 | 23:00 | 61 | 50 | 69 | 29.82 | SSW | 4 | 0.00 |
| 3 | 03/07 | 22:00 | 61 | 51 | 70 | 29.86 | SW | 7 | 0.00 |
| 4 | 03/07 | 21:00 | 60 | 49 | 69 | 29.89 | SW | 5 | 0.00 |
| 5 | 03/07 | 20:00 | 61 | 49 | 66 | 29.92 | SSW | 5 | 0.00 |
| 6 | 03/07 | 19:00 | 64 | 50 | 62 | 29.93 | S | 0 | 0.00 |
| 7 | 03/07 | 18:00 | 68 | 51 | 56 | 29.94 | S | 3 | 0.00 |
| 8 | 03/07 | 17:00 | 70 | 52 | 54 | 29.94 | S | 10 | 0.00 |
| 9 | 03/07 | 16:00 | 72 | 53 | 52 | 29.96 | S | 7 | 0.00 |
| 10 | 03/07 | 15:00 | 72 | 53 | 53 | 29.99 | SSW | 10 | 0.00 |
| 11 | 03/07 | 14:00 | 71 | 52 | 52 | 30.01 | SW | 8 | 0.00 |
| 12 | 03/07 | 13:00 | 72 | 54 | 54 | 30.04 | SW | 7 | 0.00 |
| 13 | 03/07 | 12:00 | 71 | 53 | 55 | 30.07 | NW | 6 | 0.00 |
| 14 | 03/07 | 11:00 | 71 | 54 | 57 | 30.09 | WSW | 4 | 0.00 |
| 15 | 03/07 | 10:00 | 64 | 51 | 64 | 30.11 | SSE | 0 | 0.00 |
| 16 | 03/07 | 09:00 | 52 | 45 | 77 | 30.13 | NE | 0 | 0.00 |
| 17 | 03/07 | 08:00 | 43 | 39 | 88 | 30.12 | ENE | 0 | 0.00 |
| 18 | 03/07 | 07:00 | 40 | 37 | 91 | 30.11 | NNE | 2 | 0.00 |
| 19 | 03/07 | 06:00 | 39 | 36 | 90 | 30.09 | SSE | 0 | 0.00 |
| 20 | 03/07 | 05:00 | 41 | 37 | 87 | 30.08 | WSW | 0 | 0.00 |
| 21 | 03/07 | 04:00 | 42 | 37 | 84 | 30.06 | NNE | 0 | 0.00 |
| 22 | 03/07 | 03:00 | 43 | 37 | 82 | 30.04 | NNE | 0 | 0.00 |
| 23 | 03/07 | 02:00 | 44 | 38 | 80 | 30.03 | WNW | 0 | 0.00 |
| 24 | 03/07 | 01:00 | 46 | 39 | 77 | 30.01 | WSW | 0 | 0.00 |